sensor_id;sensor_type;location;lat;lon;timestamp;temperature;humidity
30520;DHT22;17300;50.374;8.006;2023-01-19T00:02:02;1.80;51.20
30520;DHT22;17300;50.374;8.006;2023-01-19T00:04:28;1.80;51.20
30520;DHT22;17300;50.374;8.006;2023-01-19T00:06:55;1.80;51.20
30520;DHT22;17300;50.374;8.006;2023-01-19T00:09:22;1.80;51.20
30520;DHT22;17300;50.374;8.006;2023-01-19T00:11:48;1.80;51.20
30520;DHT22;17300;50.374;8.006;2023-01-19T00:14:15;1.80;51.20
30520;DHT22;17300;50.374;8.006;2023-01-19T00:16:43;1.70;51.20
30520;DHT22;17300;50.374;8.006;2023-01-19T00:19:10;1.80;51.30
30520;DHT22;17300;50.374;8.006;2023-01-19T00:21:36;1.80;51.30
30520;DHT22;17300;50.374;8.006;2023-01-19T00:24:04;1.70;51.20
30520;DHT22;17300;50.374;8.006;2023-01-19T00:26:30;1.70;51.20
30520;DHT22;17300;50.374;8.006;2023-01-19T00:28:57;1.70;51.20
30520;DHT22;17300;50.374;8.006;2023-01-19T00:31:24;1.70;51.30
30520;DHT22;17300;50.374;8.006;2023-01-19T00:33:52;1.70;51.30
30520;DHT22;17300;50.374;8.006;2023-01-19T00:36:19;1.70;51.40
30520;DHT22;17300;50.374;8.006;2023-01-19T00:38:45;1.70;51.30
30520;DHT22;17300;50.374;8.006;2023-01-19T00:41:12;1.70;51.40
30520;DHT22;17300;50.374;8.006;2023-01-19T00:43:39;1.70;51.40
30520;DHT22;17300;50.374;8.006;2023-01-19T00:46:05;1.70;51.40
30520;DHT22;17300;50.374;8.006;2023-01-19T00:48:31;1.70;51.40
30520;DHT22;17300;50.374;8.006;2023-01-19T00:50:59;1.70;51.40
30520;DHT22;17300;50.374;8.006;2023-01-19T00:53:26;1.70;51.50
30520;DHT22;17300;50.374;8.006;2023-01-19T00:55:56;1.70;51.50
30520;DHT22;17300;50.374;8.006;2023-01-19T00:58:23;1.70;51.50
30520;DHT22;17300;50.374;8.006;2023-01-19T01:00:52;1.70;51.60
30520;DHT22;17300;50.374;8.006;2023-01-19T01:03:18;1.70;51.60
30520;DHT22;17300;50.374;8.006;2023-01-19T01:05:45;1.70;51.60
30520;DHT22;17300;50.374;8.006;2023-01-19T01:08:13;1.70;51.70
30520;DHT22;17300;50.374;8.006;2023-01-19T01:10:40;1.70;51.70
30520;DHT22;17300;50.374;8.006;2023-01-19T01:13:06;1.70;51.80
30520;DHT22;17300;50.374;8.006;2023-01-19T01:15:33;1.70;52.00
30520;DHT22;17300;50.374;8.006;2023-01-19T01:18:00;1.70;52.00
30520;DHT22;17300;50.374;8.006;2023-01-19T01:20:27;1.70;52.00
30520;DHT22;17300;50.374;8.006;2023-01-19T01:22:55;1.80;52.30
30520;DHT22;17300;50.374;8.006;2023-01-19T01:25:25;1.80;52.60
30520;DHT22;17300;50.374;8.006;2023-01-19T01:27:53;1.90;52.90
30520;DHT22;17300;50.374;8.006;2023-01-19T01:30:20;2.00;52.90
30520;DHT22;17300;50.374;8.006;2023-01-19T01:32:47;2.10;53.10
30520;DHT22;17300;50.374;8.006;2023-01-19T01:35:15;2.20;53.00
30520;DHT22;17300;50.374;8.006;2023-01-19T01:37:42;2.30;53.10
30520;DHT22;17300;50.374;8.006;2023-01-19T01:40:11;2.30;53.20
30520;DHT22;17300;50.374;8.006;2023-01-19T01:42:39;2.40;53.30
30520;DHT22;17300;50.374;8.006;2023-01-19T01:45:28;2.60;53.50
30520;DHT22;17300;50.374;8.006;2023-01-19T01:47:57;2.60;53.80
30520;DHT22;17300;50.374;8.006;2023-01-19T01:50:27;2.80;53.70
30520;DHT22;17300;50.374;8.006;2023-01-19T01:52:58;2.90;53.80
30520;DHT22;17300;50.374;8.006;2023-01-19T01:55:26;3.00;54.00
30520;DHT22;17300;50.374;8.006;2023-01-19T01:57:57;3.10;54.00
30520;DHT22;17300;50.374;8.006;2023-01-19T02:00:26;3.30;54.10
30520;DHT22;17300;50.374;8.006;2023-01-19T02:03:13;3.40;54.00
30520;DHT22;17300;50.374;8.006;2023-01-19T02:05:40;3.50;53.80
30520;DHT22;17300;50.374;8.006;2023-01-19T02:08:10;3.60;53.70
30520;DHT22;17300;50.374;8.006;2023-01-19T02:10:57;3.70;53.40
30520;DHT22;17300;50.374;8.006;2023-01-19T02:13:43;3.80;53.50
30520;DHT22;17300;50.374;8.006;2023-01-19T02:16:13;3.80;53.60
30520;DHT22;17300;50.374;8.006;2023-01-19T02:18:40;3.90;53.60
30520;DHT22;17300;50.374;8.006;2023-01-19T02:21:11;3.90;53.30
30520;DHT22;17300;50.374;8.006;2023-01-19T02:23:43;4.00;53.30
30520;DHT22;17300;50.374;8.006;2023-01-19T02:26:13;4.00;53.10
30520;DHT22;17300;50.374;8.006;2023-01-19T02:28:42;4.00;53.00
30520;DHT22;17300;50.374;8.006;2023-01-19T02:31:10;4.00;52.90
30520;DHT22;17300;50.374;8.006;2023-01-19T02:33:39;4.00;52.80
30520;DHT22;17300;50.374;8.006;2023-01-19T02:36:08;4.00;52.80
30520;DHT22;17300;50.374;8.006;2023-01-19T02:38:36;4.00;52.80
30520;DHT22;17300;50.374;8.006;2023-01-19T02:41:06;4.00;52.70
30520;DHT22;17300;50.374;8.006;2023-01-19T02:43:35;4.00;52.80
30520;DHT22;17300;50.374;8.006;2023-01-19T02:46:02;4.00;52.80
30520;DHT22;17300;50.374;8.006;2023-01-19T02:48:29;4.00;52.80
30520;DHT22;17300;50.374;8.006;2023-01-19T02:50:57;3.90;52.80
30520;DHT22;17300;50.374;8.006;2023-01-19T02:54:04;3.90;52.80
30520;DHT22;17300;50.374;8.006;2023-01-19T02:56:47;3.90;53.00
30520;DHT22;17300;50.374;8.006;2023-01-19T02:59:26;3.90;52.90
30520;DHT22;17300;50.374;8.006;2023-01-19T03:02:11;3.90;52.80
30520;DHT22;17300;50.374;8.006;2023-01-19T03:04:52;3.90;52.80
30520;DHT22;17300;50.374;8.006;2023-01-19T03:07:33;3.80;52.80
30520;DHT22;17300;50.374;8.006;2023-01-19T03:10:06;3.80;52.80
30520;DHT22;17300;50.374;8.006;2023-01-19T03:12:39;3.80;52.80
30520;DHT22;17300;50.374;8.006;2023-01-19T03:15:14;3.80;52.90
30520;DHT22;17300;50.374;8.006;2023-01-19T03:17:44;3.80;52.90
30520;DHT22;17300;50.374;8.006;2023-01-19T03:20:12;3.80;52.90
30520;DHT22;17300;50.374;8.006;2023-01-19T03:22:41;3.80;52.90
30520;DHT22;17300;50.374;8.006;2023-01-19T03:25:09;3.70;52.90
30520;DHT22;17300;50.374;8.006;2023-01-19T03:27:39;3.70;53.00
30520;DHT22;17300;50.374;8.006;2023-01-19T03:30:10;3.70;53.00
30520;DHT22;17300;50.374;8.006;2023-01-19T03:32:42;3.70;53.00
30520;DHT22;17300;50.374;8.006;2023-01-19T03:35:12;3.70;53.00
30520;DHT22;17300;50.374;8.006;2023-01-19T03:37:42;3.70;52.90
30520;DHT22;17300;50.374;8.006;2023-01-19T03:40:11;3.70;52.90
30520;DHT22;17300;50.374;8.006;2023-01-19T03:42:40;3.60;52.80
30520;DHT22;17300;50.374;8.006;2023-01-19T03:45:08;3.70;52.90
30520;DHT22;17300;50.374;8.006;2023-01-19T03:47:36;3.60;52.70
30520;DHT22;17300;50.374;8.006;2023-01-19T03:50:05;3.60;52.80
30520;DHT22;17300;50.374;8.006;2023-01-19T03:52:33;3.50;52.70
30520;DHT22;17300;50.374;8.006;2023-01-19T03:55:00;3.50;52.70
30520;DHT22;17300;50.374;8.006;2023-01-19T03:57:28;3.50;52.70
30520;DHT22;17300;50.374;8.006;2023-01-19T03:59:56;3.40;52.70
30520;DHT22;17300;50.374;8.006;2023-01-19T04:02:23;3.40;52.70
30520;DHT22;17300;50.374;8.006;2023-01-19T04:04:50;3.30;52.60
30520;DHT22;17300;50.374;8.006;2023-01-19T04:07:16;3.30;52.60
30520;DHT22;17300;50.374;8.006;2023-01-19T04:09:43;3.30;52.70
30520;DHT22;17300;50.374;8.006;2023-01-19T04:12:10;3.20;52.70
30520;DHT22;17300;50.374;8.006;2023-01-19T04:14:36;3.20;52.80
30520;DHT22;17300;50.374;8.006;2023-01-19T04:17:04;3.20;53.00
30520;DHT22;17300;50.374;8.006;2023-01-19T04:19:31;3.10;53.00
30520;DHT22;17300;50.374;8.006;2023-01-19T04:21:57;3.20;53.10
30520;DHT22;17300;50.374;8.006;2023-01-19T04:24:24;3.20;53.10
30520;DHT22;17300;50.374;8.006;2023-01-19T04:26:52;3.20;53.10
30520;DHT22;17300;50.374;8.006;2023-01-19T04:29:19;3.20;53.30
30520;DHT22;17300;50.374;8.006;2023-01-19T04:31:45;3.20;53.50
30520;DHT22;17300;50.374;8.006;2023-01-19T04:34:13;3.30;53.70
30520;DHT22;17300;50.374;8.006;2023-01-19T04:36:40;3.30;53.70
30520;DHT22;17300;50.374;8.006;2023-01-19T04:39:07;3.40;53.60
30520;DHT22;17300;50.374;8.006;2023-01-19T04:41:34;3.40;53.50
30520;DHT22;17300;50.374;8.006;2023-01-19T04:44:01;3.50;53.60
30520;DHT22;17300;50.374;8.006;2023-01-19T04:46:28;3.50;53.40
30520;DHT22;17300;50.374;8.006;2023-01-19T04:48:54;3.50;53.30
30520;DHT22;17300;50.374;8.006;2023-01-19T04:51:22;3.60;53.40
30520;DHT22;17300;50.374;8.006;2023-01-19T04:53:49;3.60;53.50
30520;DHT22;17300;50.374;8.006;2023-01-19T04:56:16;3.60;53.60
30520;DHT22;17300;50.374;8.006;2023-01-19T04:58:42;3.70;53.80
30520;DHT22;17300;50.374;8.006;2023-01-19T05:01:09;3.80;54.00
30520;DHT22;17300;50.374;8.006;2023-01-19T05:03:36;3.80;54.00
30520;DHT22;17300;50.374;8.006;2023-01-19T05:06:03;3.90;54.20
30520;DHT22;17300;50.374;8.006;2023-01-19T05:08:31;3.90;54.20
30520;DHT22;17300;50.374;8.006;2023-01-19T05:10:57;4.00;54.30
30520;DHT22;17300;50.374;8.006;2023-01-19T05:13:24;4.00;54.20
30520;DHT22;17300;50.374;8.006;2023-01-19T05:15:51;4.10;54.20
30520;DHT22;17300;50.374;8.006;2023-01-19T05:18:18;4.20;53.90
30520;DHT22;17300;50.374;8.006;2023-01-19T05:20:44;4.20;53.90
30520;DHT22;17300;50.374;8.006;2023-01-19T05:23:11;4.20;53.80
30520;DHT22;17300;50.374;8.006;2023-01-19T05:25:39;4.30;53.90
30520;DHT22;17300;50.374;8.006;2023-01-19T05:28:07;4.30;53.90
30520;DHT22;17300;50.374;8.006;2023-01-19T05:30:34;4.30;53.70
30520;DHT22;17300;50.374;8.006;2023-01-19T05:33:01;4.30;53.60
30520;DHT22;17300;50.374;8.006;2023-01-19T05:35:28;4.20;54.00
30520;DHT22;17300;50.374;8.006;2023-01-19T05:37:54;4.20;53.30
30520;DHT22;17300;50.374;8.006;2023-01-19T05:40:21;4.20;53.30
30520;DHT22;17300;50.374;8.006;2023-01-19T05:42:49;4.10;53.20
30520;DHT22;17300;50.374;8.006;2023-01-19T05:45:32;4.10;53.30
30520;DHT22;17300;50.374;8.006;2023-01-19T05:48:12;4.00;53.30
30520;DHT22;17300;50.374;8.006;2023-01-19T05:50:46;4.00;53.20
30520;DHT22;17300;50.374;8.006;2023-01-19T05:53:39;4.00;53.30
30520;DHT22;17300;50.374;8.006;2023-01-19T05:56:07;4.00;53.30
30520;DHT22;17300;50.374;8.006;2023-01-19T05:58:38;3.90;53.30
30520;DHT22;17300;50.374;8.006;2023-01-19T06:01:10;3.90;53.50
30520;DHT22;17300;50.374;8.006;2023-01-19T06:03:52;3.80;53.30
30520;DHT22;17300;50.374;8.006;2023-01-19T06:06:19;3.80;53.30
30520;DHT22;17300;50.374;8.006;2023-01-19T06:08:46;3.80;53.50
30520;DHT22;17300;50.374;8.006;2023-01-19T06:11:12;3.80;53.50
30520;DHT22;17300;50.374;8.006;2023-01-19T06:13:40;3.80;53.50
30520;DHT22;17300;50.374;8.006;2023-01-19T06:16:08;3.80;53.60
30520;DHT22;17300;50.374;8.006;2023-01-19T06:18:34;3.80;53.50
30520;DHT22;17300;50.374;8.006;2023-01-19T06:21:05;3.90;53.90
30520;DHT22;17300;50.374;8.006;2023-01-19T06:23:33;3.90;54.20
30520;DHT22;17300;50.374;8.006;2023-01-19T06:26:01;4.00;54.40
30520;DHT22;17300;50.374;8.006;2023-01-19T06:28:28;4.00;54.50
30520;DHT22;17300;50.374;8.006;2023-01-19T06:30:56;4.10;54.60
30520;DHT22;17300;50.374;8.006;2023-01-19T06:33:23;4.20;54.70
30520;DHT22;17300;50.374;8.006;2023-01-19T06:35:51;4.30;54.70
30520;DHT22;17300;50.374;8.006;2023-01-19T06:38:18;4.40;54.80
30520;DHT22;17300;50.374;8.006;2023-01-19T06:40:46;4.50;54.80
30520;DHT22;17300;50.374;8.006;2023-01-19T06:43:16;4.70;54.80
30520;DHT22;17300;50.374;8.006;2023-01-19T06:45:44;4.70;54.70
30520;DHT22;17300;50.374;8.006;2023-01-19T06:48:12;4.80;54.40
30520;DHT22;17300;50.374;8.006;2023-01-19T06:50:39;4.90;54.30
30520;DHT22;17300;50.374;8.006;2023-01-19T06:53:06;5.00;54.40
30520;DHT22;17300;50.374;8.006;2023-01-19T06:55:32;5.10;54.50
30520;DHT22;17300;50.374;8.006;2023-01-19T06:58:01;5.20;54.60
30520;DHT22;17300;50.374;8.006;2023-01-19T07:00:27;5.20;54.30
30520;DHT22;17300;50.374;8.006;2023-01-19T07:02:54;5.30;54.20
30520;DHT22;17300;50.374;8.006;2023-01-19T07:05:22;5.40;54.10
30520;DHT22;17300;50.374;8.006;2023-01-19T07:07:51;5.50;54.10
30520;DHT22;17300;50.374;8.006;2023-01-19T07:10:17;5.50;53.90
30520;DHT22;17300;50.374;8.006;2023-01-19T07:12:44;5.50;53.70
30520;DHT22;17300;50.374;8.006;2023-01-19T07:15:12;5.50;53.60
30520;DHT22;17300;50.374;8.006;2023-01-19T07:17:39;5.60;53.70
30520;DHT22;17300;50.374;8.006;2023-01-19T07:20:07;5.60;53.60
30520;DHT22;17300;50.374;8.006;2023-01-19T07:22:36;5.60;53.50
30520;DHT22;17300;50.374;8.006;2023-01-19T07:25:04;5.60;53.40
30520;DHT22;17300;50.374;8.006;2023-01-19T07:27:31;5.60;53.30
30520;DHT22;17300;50.374;8.006;2023-01-19T07:29:57;5.60;53.30
30520;DHT22;17300;50.374;8.006;2023-01-19T07:32:25;5.60;53.20
30520;DHT22;17300;50.374;8.006;2023-01-19T07:34:52;5.50;53.70
30520;DHT22;17300;50.374;8.006;2023-01-19T07:37:19;5.60;53.20
30520;DHT22;17300;50.374;8.006;2023-01-19T07:39:47;5.50;53.10
30520;DHT22;17300;50.374;8.006;2023-01-19T07:42:13;5.50;53.20
30520;DHT22;17300;50.374;8.006;2023-01-19T07:44:40;5.50;53.20
30520;DHT22;17300;50.374;8.006;2023-01-19T07:47:07;5.50;53.40
30520;DHT22;17300;50.374;8.006;2023-01-19T07:49:36;5.50;53.50
30520;DHT22;17300;50.374;8.006;2023-01-19T07:52:03;5.50;53.70
30520;DHT22;17300;50.374;8.006;2023-01-19T07:54:30;5.60;54.40
30520;DHT22;17300;50.374;8.006;2023-01-19T07:56:58;5.70;54.00
30520;DHT22;17300;50.374;8.006;2023-01-19T07:59:26;5.70;54.00
30520;DHT22;17300;50.374;8.006;2023-01-19T08:01:54;5.80;54.00
30520;DHT22;17300;50.374;8.006;2023-01-19T08:04:23;5.90;54.10
30520;DHT22;17300;50.374;8.006;2023-01-19T08:06:50;6.00;54.20
30520;DHT22;17300;50.374;8.006;2023-01-19T08:09:17;6.10;54.30
30520;DHT22;17300;50.374;8.006;2023-01-19T08:11:44;6.20;54.20
30520;DHT22;17300;50.374;8.006;2023-01-19T08:14:12;6.30;54.20
30520;DHT22;17300;50.374;8.006;2023-01-19T08:16:38;6.40;54.20
30520;DHT22;17300;50.374;8.006;2023-01-19T08:19:05;6.50;54.20
30520;DHT22;17300;50.374;8.006;2023-01-19T08:21:31;6.60;54.20
30520;DHT22;17300;50.374;8.006;2023-01-19T08:24:00;6.70;54.00
30520;DHT22;17300;50.374;8.006;2023-01-19T08:26:28;6.80;53.80
30520;DHT22;17300;50.374;8.006;2023-01-19T08:28:56;6.90;53.70
30520;DHT22;17300;50.374;8.006;2023-01-19T08:31:25;7.00;53.60
30520;DHT22;17300;50.374;8.006;2023-01-19T08:33:52;7.10;53.30
30520;DHT22;17300;50.374;8.006;2023-01-19T08:36:19;7.10;53.20
30520;DHT22;17300;50.374;8.006;2023-01-19T08:38:47;7.10;53.00
30520;DHT22;17300;50.374;8.006;2023-01-19T08:41:14;7.10;52.90
30520;DHT22;17300;50.374;8.006;2023-01-19T08:43:41;7.10;52.90
30520;DHT22;17300;50.374;8.006;2023-01-19T08:46:09;7.10;52.90
30520;DHT22;17300;50.374;8.006;2023-01-19T08:48:37;7.10;52.90
30520;DHT22;17300;50.374;8.006;2023-01-19T08:51:03;7.10;53.00
30520;DHT22;17300;50.374;8.006;2023-01-19T08:53:30;7.00;52.90
30520;DHT22;17300;50.374;8.006;2023-01-19T08:55:57;7.00;53.10
30520;DHT22;17300;50.374;8.006;2023-01-19T08:58:25;7.00;53.10
30520;DHT22;17300;50.374;8.006;2023-01-19T09:00:52;6.90;53.10
30520;DHT22;17300;50.374;8.006;2023-01-19T09:03:19;6.90;53.20
30520;DHT22;17300;50.374;8.006;2023-01-19T09:05:48;6.90;53.30
30520;DHT22;17300;50.374;8.006;2023-01-19T09:08:15;6.90;53.40
30520;DHT22;17300;50.374;8.006;2023-01-19T09:10:44;6.80;53.30
30520;DHT22;17300;50.374;8.006;2023-01-19T09:13:11;6.80;53.40
30520;DHT22;17300;50.374;8.006;2023-01-19T09:15:39;6.80;53.50
30520;DHT22;17300;50.374;8.006;2023-01-19T09:18:08;6.80;53.60
30520;DHT22;17300;50.374;8.006;2023-01-19T09:20:38;6.80;53.70
30520;DHT22;17300;50.374;8.006;2023-01-19T09:23:08;6.80;53.70
30520;DHT22;17300;50.374;8.006;2023-01-19T09:25:36;6.80;53.90
30520;DHT22;17300;50.374;8.006;2023-01-19T09:28:03;6.90;54.00
30520;DHT22;17300;50.374;8.006;2023-01-19T09:30:30;6.90;54.00
30520;DHT22;17300;50.374;8.006;2023-01-19T09:33:01;6.90;54.00
30520;DHT22;17300;50.374;8.006;2023-01-19T09:35:28;7.00;54.10
30520;DHT22;17300;50.374;8.006;2023-01-19T09:37:55;7.10;54.10
30520;DHT22;17300;50.374;8.006;2023-01-19T09:40:24;7.10;54.10
30520;DHT22;17300;50.374;8.006;2023-01-19T09:42:54;7.20;54.20
30520;DHT22;17300;50.374;8.006;2023-01-19T09:45:28;7.30;54.30
30520;DHT22;17300;50.374;8.006;2023-01-19T09:47:57;7.40;54.30
30520;DHT22;17300;50.374;8.006;2023-01-19T09:50:26;7.50;54.30
30520;DHT22;17300;50.374;8.006;2023-01-19T09:52:56;7.60;54.30
30520;DHT22;17300;50.374;8.006;2023-01-19T09:55:27;7.60;54.10
30520;DHT22;17300;50.374;8.006;2023-01-19T09:57:54;7.70;54.10
30520;DHT22;17300;50.374;8.006;2023-01-19T10:00:21;7.80;54.00
30520;DHT22;17300;50.374;8.006;2023-01-19T10:02:54;7.80;53.90
30520;DHT22;17300;50.374;8.006;2023-01-19T10:05:28;7.90;53.90
30520;DHT22;17300;50.374;8.006;2023-01-19T10:08:06;7.90;53.80
30520;DHT22;17300;50.374;8.006;2023-01-19T10:10:39;8.00;53.80
30520;DHT22;17300;50.374;8.006;2023-01-19T10:13:17;8.00;53.80
30520;DHT22;17300;50.374;8.006;2023-01-19T10:15:54;8.00;53.80
30520;DHT22;17300;50.374;8.006;2023-01-19T10:18:23;8.10;53.80
30520;DHT22;17300;50.374;8.006;2023-01-19T10:21:00;8.10;53.80
30520;DHT22;17300;50.374;8.006;2023-01-19T10:23:37;8.20;53.90
30520;DHT22;17300;50.374;8.006;2023-01-19T10:26:10;8.20;53.80
30520;DHT22;17300;50.374;8.006;2023-01-19T10:28:40;8.30;53.90
30520;DHT22;17300;50.374;8.006;2023-01-19T10:31:07;8.20;53.80
30520;DHT22;17300;50.374;8.006;2023-01-19T10:33:35;8.30;53.90
30520;DHT22;17300;50.374;8.006;2023-01-19T10:36:09;8.30;53.90
30520;DHT22;17300;50.374;8.006;2023-01-19T10:38:40;8.30;54.00
30520;DHT22;17300;50.374;8.006;2023-01-19T10:41:13;8.40;54.00
30520;DHT22;17300;50.374;8.006;2023-01-19T10:43:42;8.40;54.00
30520;DHT22;17300;50.374;8.006;2023-01-19T10:46:22;8.40;54.00
30520;DHT22;17300;50.374;8.006;2023-01-19T10:48:53;8.40;54.00
30520;DHT22;17300;50.374;8.006;2023-01-19T10:51:20;8.40;53.80
30520;DHT22;17300;50.374;8.006;2023-01-19T10:53:57;8.40;53.70
30520;DHT22;17300;50.374;8.006;2023-01-19T10:56:28;8.50;53.80
30520;DHT22;17300;50.374;8.006;2023-01-19T10:58:58;8.50;53.90
30520;DHT22;17300;50.374;8.006;2023-01-19T11:01:26;8.50;54.00
30520;DHT22;17300;50.374;8.006;2023-01-19T11:03:54;8.50;54.00
30520;DHT22;17300;50.374;8.006;2023-01-19T11:06:30;8.60;54.10
30520;DHT22;17300;50.374;8.006;2023-01-19T11:09:14;8.60;54.00
30520;DHT22;17300;50.374;8.006;2023-01-19T11:11:47;8.60;53.90
30520;DHT22;17300;50.374;8.006;2023-01-19T11:14:18;8.70;53.80
30520;DHT22;17300;50.374;8.006;2023-01-19T11:16:47;8.70;53.80
30520;DHT22;17300;50.374;8.006;2023-01-19T11:19:24;8.70;53.70
30520;DHT22;17300;50.374;8.006;2023-01-19T11:21:51;8.80;53.70
30520;DHT22;17300;50.374;8.006;2023-01-19T11:24:19;8.80;53.60
30520;DHT22;17300;50.374;8.006;2023-01-19T11:26:49;8.80;53.60
30520;DHT22;17300;50.374;8.006;2023-01-19T11:29:23;8.80;53.50
30520;DHT22;17300;50.374;8.006;2023-01-19T11:31:51;8.90;53.50
30520;DHT22;17300;50.374;8.006;2023-01-19T11:34:29;8.90;53.30
30520;DHT22;17300;50.374;8.006;2023-01-19T11:36:58;8.90;53.20
30520;DHT22;17300;50.374;8.006;2023-01-19T11:39:27;8.90;53.30
30520;DHT22;17300;50.374;8.006;2023-01-19T11:41:57;9.00;53.40
30520;DHT22;17300;50.374;8.006;2023-01-19T11:44:28;9.00;53.30
30520;DHT22;17300;50.374;8.006;2023-01-19T11:46:57;9.00;53.10
30520;DHT22;17300;50.374;8.006;2023-01-19T11:49:32;9.00;53.00
30520;DHT22;17300;50.374;8.006;2023-01-19T11:52:04;9.10;52.90
30520;DHT22;17300;50.374;8.006;2023-01-19T11:54:34;9.10;52.90
30520;DHT22;17300;50.374;8.006;2023-01-19T11:57:11;9.10;52.60
30520;DHT22;17300;50.374;8.006;2023-01-19T11:59:38;9.00;52.40
30520;DHT22;17300;50.374;8.006;2023-01-19T12:02:16;9.00;52.30
30520;DHT22;17300;50.374;8.006;2023-01-19T12:04:44;8.90;52.10
30520;DHT22;17300;50.374;8.006;2023-01-19T12:07:14;8.90;52.20
30520;DHT22;17300;50.374;8.006;2023-01-19T12:09:46;8.80;52.10
30520;DHT22;17300;50.374;8.006;2023-01-19T12:12:27;8.80;52.20
30520;DHT22;17300;50.374;8.006;2023-01-19T12:15:00;8.70;52.20
30520;DHT22;17300;50.374;8.006;2023-01-19T12:17:30;8.70;52.40
30520;DHT22;17300;50.374;8.006;2023-01-19T12:20:02;8.60;52.60
30520;DHT22;17300;50.374;8.006;2023-01-19T12:22:35;8.60;52.60
30520;DHT22;17300;50.374;8.006;2023-01-19T12:25:12;8.60;52.70
30520;DHT22;17300;50.374;8.006;2023-01-19T12:27:43;8.60;52.80
30520;DHT22;17300;50.374;8.006;2023-01-19T12:30:16;8.60;52.90
30520;DHT22;17300;50.374;8.006;2023-01-19T12:32:44;8.60;52.90
30520;DHT22;17300;50.374;8.006;2023-01-19T12:38:45;8.60;52.90
30520;DHT22;17300;50.374;8.006;2023-01-19T12:41:21;8.60;53.00
30520;DHT22;17300;50.374;8.006;2023-01-19T12:44:14;8.60;53.00
30520;DHT22;17300;50.374;8.006;2023-01-19T12:46:45;8.60;53.00
30520;DHT22;17300;50.374;8.006;2023-01-19T12:49:21;8.70;53.10
30520;DHT22;17300;50.374;8.006;2023-01-19T12:51:51;8.70;52.90
30520;DHT22;17300;50.374;8.006;2023-01-19T12:54:24;8.70;52.90
30520;DHT22;17300;50.374;8.006;2023-01-19T12:56:57;8.80;52.90
30520;DHT22;17300;50.374;8.006;2023-01-19T12:59:27;8.80;53.00
30520;DHT22;17300;50.374;8.006;2023-01-19T13:05:16;8.90;53.20
30520;DHT22;17300;50.374;8.006;2023-01-19T13:08:16;9.00;53.30
30520;DHT22;17300;50.374;8.006;2023-01-19T13:17:00;9.20;52.80
30520;DHT22;17300;50.374;8.006;2023-01-19T13:19:43;9.20;52.60
30520;DHT22;17300;50.374;8.006;2023-01-19T13:25:32;9.20;52.40
30520;DHT22;17300;50.374;8.006;2023-01-19T13:28:03;9.20;52.30
30520;DHT22;17300;50.374;8.006;2023-01-19T13:30:33;9.10;52.90
30520;DHT22;17300;50.374;8.006;2023-01-19T13:33:05;9.10;52.30
30520;DHT22;17300;50.374;8.006;2023-01-19T13:35:32;9.10;52.30
30520;DHT22;17300;50.374;8.006;2023-01-19T13:37:59;9.10;52.40
30520;DHT22;17300;50.374;8.006;2023-01-19T13:40:32;9.10;52.40
30520;DHT22;17300;50.374;8.006;2023-01-19T13:43:01;9.00;52.20
30520;DHT22;17300;50.374;8.006;2023-01-19T13:45:30;9.00;52.30
30520;DHT22;17300;50.374;8.006;2023-01-19T13:48:02;9.00;52.30
30520;DHT22;17300;50.374;8.006;2023-01-19T13:50:32;8.90;52.30
30520;DHT22;17300;50.374;8.006;2023-01-19T13:52:59;8.90;52.20
30520;DHT22;17300;50.374;8.006;2023-01-19T13:55:29;8.90;52.30
30520;DHT22;17300;50.374;8.006;2023-01-19T13:57:56;8.90;52.40
30520;DHT22;17300;50.374;8.006;2023-01-19T14:00:24;8.80;52.40
30520;DHT22;17300;50.374;8.006;2023-01-19T14:02:54;8.80;52.40
30520;DHT22;17300;50.374;8.006;2023-01-19T14:05:24;8.80;52.50
30520;DHT22;17300;50.374;8.006;2023-01-19T14:08:02;8.80;52.40
30520;DHT22;17300;50.374;8.006;2023-01-19T14:10:30;8.80;52.40
30520;DHT22;17300;50.374;8.006;2023-01-19T14:12:58;8.80;52.50
30520;DHT22;17300;50.374;8.006;2023-01-19T14:15:26;8.80;52.70
30520;DHT22;17300;50.374;8.006;2023-01-19T14:18:21;8.80;52.80
30520;DHT22;17300;50.374;8.006;2023-01-19T14:21:06;8.80;52.70
30520;DHT22;17300;50.374;8.006;2023-01-19T14:23:43;8.80;52.60
30520;DHT22;17300;50.374;8.006;2023-01-19T14:26:45;8.80;52.60
30520;DHT22;17300;50.374;8.006;2023-01-19T14:29:25;8.80;52.40
30520;DHT22;17300;50.374;8.006;2023-01-19T14:32:04;8.80;52.40
30520;DHT22;17300;50.374;8.006;2023-01-19T14:34:34;8.80;52.30
30520;DHT22;17300;50.374;8.006;2023-01-19T14:37:04;8.80;52.30
30520;DHT22;17300;50.374;8.006;2023-01-19T14:39:33;8.80;52.20
30520;DHT22;17300;50.374;8.006;2023-01-19T14:42:12;8.80;52.20
30520;DHT22;17300;50.374;8.006;2023-01-19T14:44:40;8.70;52.10
30520;DHT22;17300;50.374;8.006;2023-01-19T14:47:24;8.70;52.20
30520;DHT22;17300;50.374;8.006;2023-01-19T14:49:52;8.70;52.30
30520;DHT22;17300;50.374;8.006;2023-01-19T14:52:25;8.70;52.30
30520;DHT22;17300;50.374;8.006;2023-01-19T14:54:54;8.70;52.20
30520;DHT22;17300;50.374;8.006;2023-01-19T14:57:22;8.60;52.20
30520;DHT22;17300;50.374;8.006;2023-01-19T14:59:49;8.60;52.10
30520;DHT22;17300;50.374;8.006;2023-01-19T15:02:17;8.60;52.20
30520;DHT22;17300;50.374;8.006;2023-01-19T15:04:44;8.60;52.40
30520;DHT22;17300;50.374;8.006;2023-01-19T15:07:16;8.60;52.50
30520;DHT22;17300;50.374;8.006;2023-01-19T15:09:45;8.60;52.60
30520;DHT22;17300;50.374;8.006;2023-01-19T15:12:14;8.60;52.50
30520;DHT22;17300;50.374;8.006;2023-01-19T15:14:42;8.70;52.50
30520;DHT22;17300;50.374;8.006;2023-01-19T15:17:14;8.70;52.40
30520;DHT22;17300;50.374;8.006;2023-01-19T15:19:42;8.70;52.30
30520;DHT22;17300;50.374;8.006;2023-01-19T15:22:10;8.70;52.20
30520;DHT22;17300;50.374;8.006;2023-01-19T15:24:37;8.70;52.10
30520;DHT22;17300;50.374;8.006;2023-01-19T15:27:08;8.70;52.10
30520;DHT22;17300;50.374;8.006;2023-01-19T15:29:36;8.80;52.20
30520;DHT22;17300;50.374;8.006;2023-01-19T15:32:05;8.70;52.10
30520;DHT22;17300;50.374;8.006;2023-01-19T15:34:31;8.70;52.10
30520;DHT22;17300;50.374;8.006;2023-01-19T15:36:58;8.70;52.10
30520;DHT22;17300;50.374;8.006;2023-01-19T15:39:25;8.70;52.10
30520;DHT22;17300;50.374;8.006;2023-01-19T15:41:52;8.70;52.20
30520;DHT22;17300;50.374;8.006;2023-01-19T15:44:20;8.70;52.20
30520;DHT22;17300;50.374;8.006;2023-01-19T15:46:46;8.70;52.10
30520;DHT22;17300;50.374;8.006;2023-01-19T15:49:13;8.70;52.00
30520;DHT22;17300;50.374;8.006;2023-01-19T15:51:40;8.70;52.10
30520;DHT22;17300;50.374;8.006;2023-01-19T15:54:08;8.70;52.20
30520;DHT22;17300;50.374;8.006;2023-01-19T15:56:39;8.70;52.00
30520;DHT22;17300;50.374;8.006;2023-01-19T15:59:06;8.70;52.00
30520;DHT22;17300;50.374;8.006;2023-01-19T16:01:34;8.70;51.90
30520;DHT22;17300;50.374;8.006;2023-01-19T16:04:02;8.70;51.90
30520;DHT22;17300;50.374;8.006;2023-01-19T16:06:29;8.70;51.80
30520;DHT22;17300;50.374;8.006;2023-01-19T16:08:57;8.70;51.80
30520;DHT22;17300;50.374;8.006;2023-01-19T16:11:26;8.60;51.60
30520;DHT22;17300;50.374;8.006;2023-01-19T16:13:53;8.50;51.60
30520;DHT22;17300;50.374;8.006;2023-01-19T16:16:22;8.50;51.60
30520;DHT22;17300;50.374;8.006;2023-01-19T16:18:50;8.50;51.60